Time;durP1;ratioP1;P1;durP2;ratioP2;P2;SDS_P1;SDS_P2;PMS_P1;PMS_P2;Temp;Humidity;BMP_temperature;BMP_pressure;BME280_temperature;BME280_humidity;BME280_pressure;Samples;Min_cycle;Max_cycle;Signal;HPM_P1;HPM_P2
2022/12/16 00:00:22;;;;;;;4.40;3.50;;;13.80;61.60;;;;;;5061364;28;20072;-63
2022/12/16 00:02:51;;;;;;;4.10;3.25;;;13.90;61.30;;;;;;5061431;28;20182;-63
2022/12/16 00:05:18;;;;;;;3.55;3.15;;;13.90;60.90;;;;;;5061461;28;20017;-63
2022/12/16 00:07:46;;;;;;;6.32;3.67;;;13.90;60.90;;;;;;5061362;28;20021;-64
2022/12/16 00:10:12;;;;;;;3.45;3.15;;;14.00;61.00;;;;;;5061429;28;20055;-63
2022/12/16 00:12:38;;;;;;;3.80;3.08;;;13.90;60.90;;;;;;5061334;28;20313;-63
2022/12/16 00:15:04;;;;;;;3.40;3.08;;;14.00;61.00;;;;;;5062198;28;20099;-64
2022/12/16 00:17:30;;;;;;;4.40;3.38;;;13.90;60.90;;;;;;5064882;28;20055;-63
2022/12/16 00:19:56;;;;;;;4.38;3.30;;;13.90;60.70;;;;;;5065064;28;20328;-63
2022/12/16 00:22:22;;;;;;;4.18;3.50;;;13.90;60.80;;;;;;5063703;28;20041;-64
2022/12/16 00:24:48;;;;;;;4.03;3.40;;;13.90;60.90;;;;;;5064926;28;20028;-62
2022/12/16 00:27:15;;;;;;;4.57;3.67;;;13.90;60.90;;;;;;5064815;28;20023;-62
2022/12/16 00:29:41;;;;;;;4.47;3.20;;;13.90;60.80;;;;;;5064836;28;20100;-63
2022/12/16 00:32:07;;;;;;;3.75;3.35;;;13.90;60.80;;;;;;5064763;28;20013;-63
2022/12/16 00:34:33;;;;;;;4.68;3.15;;;13.90;60.80;;;;;;5064774;28;20052;-63
2022/12/16 00:36:59;;;;;;;4.05;3.28;;;13.90;60.70;;;;;;5064610;28;20021;-63
2022/12/16 00:39:24;;;;;;;3.50;2.95;;;13.90;60.70;;;;;;5064633;28;20020;-63
2022/12/16 00:41:51;;;;;;;4.65;3.30;;;14.00;60.70;;;;;;5064584;28;20092;-64
2022/12/16 00:44:17;;;;;;;4.13;3.50;;;14.00;60.60;;;;;;5064594;28;20025;-63
2022/12/16 00:46:43;;;;;;;4.85;3.40;;;13.90;60.80;;;;;;5064562;28;20028;-63
2022/12/16 00:49:09;;;;;;;3.58;3.15;;;13.90;61.00;;;;;;5064513;28;20020;-63
2022/12/16 00:51:34;;;;;;;4.30;3.20;;;14.00;60.90;;;;;;5064447;28;20336;-63
2022/12/16 00:54:00;;;;;;;3.65;3.25;;;13.90;61.10;;;;;;5064429;28;20043;-63
2022/12/16 00:56:26;;;;;;;4.22;3.22;;;13.90;61.40;;;;;;5064193;28;20024;-64
2022/12/16 00:58:52;;;;;;;4.18;3.13;;;13.80;61.50;;;;;;5064329;28;20029;-63
2022/12/16 01:01:18;;;;;;;3.78;3.38;;;13.80;61.40;;;;;;5064247;28;20182;-63
2022/12/16 01:03:44;;;;;;;4.38;3.20;;;13.90;61.40;;;;;;5064236;28;20021;-62
2022/12/16 01:06:13;;;;;;;3.35;2.85;;;13.90;61.40;;;;;;5064151;28;20032;-63
2022/12/16 01:08:39;;;;;;;4.55;3.17;;;13.80;61.20;;;;;;5064150;28;20025;-63
2022/12/16 01:11:05;;;;;;;4.50;3.10;;;13.90;60.90;;;;;;5064090;28;20031;-63
2022/12/16 01:13:31;;;;;;;3.20;2.90;;;14.00;60.90;;;;;;5064057;28;20056;-63
2022/12/16 01:16:01;;;;;;;3.70;2.80;;;13.90;60.90;;;;;;5063793;28;20036;-62
2022/12/16 01:18:27;;;;;;;4.07;3.08;;;13.90;61.00;;;;;;5063998;28;20039;-63
2022/12/16 01:20:53;;;;;;;3.08;2.63;;;13.90;60.90;;;;;;5062735;28;20023;-63
2022/12/16 01:23:19;;;;;;;4.15;3.15;;;13.90;61.00;;;;;;5063888;28;20076;-63
2022/12/16 01:25:47;;;;;;;3.58;2.90;;;13.90;60.90;;;;;;5063305;28;20243;-64
2022/12/16 01:28:14;;;;;;;4.90;3.38;;;13.90;60.90;;;;;;5063812;28;20079;-63
2022/12/16 01:30:39;;;;;;;3.65;2.90;;;13.90;61.00;;;;;;5063839;28;20313;-63
2022/12/16 01:33:05;;;;;;;2.97;2.67;;;13.90;60.90;;;;;;5063768;28;20047;-63
2022/12/16 01:35:31;;;;;;;4.25;3.30;;;13.90;60.80;;;;;;5063694;28;20031;-63
2022/12/16 01:37:57;;;;;;;3.45;2.85;;;13.90;60.80;;;;;;5063484;28;20020;-63
2022/12/16 01:40:23;;;;;;;4.32;2.92;;;13.90;60.70;;;;;;5063672;28;20216;-63
2022/12/16 01:42:49;;;;;;;2.90;2.70;;;13.90;60.60;;;;;;5063491;28;20017;-63
2022/12/16 01:45:41;;;;;;;3.67;2.78;;;14.00;60.70;;;;;;5063517;28;20020;-63
2022/12/16 01:48:30;;;;;;;3.67;3.00;;;14.00;60.60;;;;;;5062386;28;20041;-63
2022/12/16 01:51:06;;;;;;;3.58;3.10;;;14.00;60.70;;;;;;5060299;28;20092;-64
2022/12/16 01:53:32;;;;;;;3.55;3.10;;;13.90;60.90;;;;;;5063314;28;20047;-63
2022/12/16 01:56:00;;;;;;;3.47;3.17;;;13.90;60.90;;;;;;5063150;28;20283;-63
2022/12/16 01:58:33;;;;;;;3.63;3.10;;;13.90;61.00;;;;;;5063208;28;20020;-63
2022/12/16 02:01:02;;;;;;;3.95;2.92;;;13.90;61.10;;;;;;5061949;28;20304;-63
2022/12/16 02:03:32;;;;;;;3.85;3.00;;;13.80;61.30;;;;;;5063050;28;20024;-62
2022/12/16 02:05:59;;;;;;;3.58;3.00;;;13.80;61.40;;;;;;5063074;28;20178;-64
2022/12/16 02:08:25;;;;;;;3.10;2.58;;;13.80;61.40;;;;;;5063078;28;20339;-64
2022/12/16 02:11:06;;;;;;;3.08;2.78;;;13.80;61.40;;;;;;5063056;28;20016;-63
2022/12/16 02:13:46;;;;;;;4.22;2.85;;;13.90;61.20;;;;;;5062935;28;20017;-63
2022/12/16 02:16:20;;;;;;;3.97;3.05;;;13.90;61.10;;;;;;5062728;28;20053;-64
2022/12/16 02:18:55;;;;;;;3.15;2.72;;;13.90;61.00;;;;;;5061675;28;20196;-63
2022/12/16 02:21:30;;;;;;;3.10;2.80;;;14.00;61.00;;;;;;5062758;28;20013;-63
2022/12/16 02:24:14;;;;;;;3.70;2.72;;;13.90;60.90;;;;;;5062785;28;20372;-62
2022/12/16 02:26:50;;;;;;;3.85;3.22;;;13.90;60.90;;;;;;5062682;28;20036;-63
2022/12/16 02:29:54;;;;;;;3.65;2.80;;;13.90;60.80;;;;;;5062646;28;20044;-63
2022/12/16 02:32:34;;;;;;;3.20;2.88;;;13.90;60.80;;;;;;5062648;28;20296;-63
2022/12/16 02:35:27;;;;;;;2.95;2.65;;;13.90;60.80;;;;;;5062468;28;20020;-63
2022/12/16 02:38:10;;;;;;;4.15;3.03;;;13.90;60.80;;;;;;5061637;28;20329;-63
2022/12/16 02:40:44;;;;;;;3.17;2.88;;;14.00;60.80;;;;;;5062427;28;20024;-63
2022/12/16 02:43:48;;;;;;;3.97;3.00;;;13.90;60.80;;;;;;5062419;28;20021;-63
2022/12/16 02:46:15;;;;;;;3.60;2.97;;;13.90;60.80;;;;;;5062366;28;20032;-63
2022/12/16 02:48:40;;;;;;;4.18;2.70;;;14.00;60.80;;;;;;5062251;28;20205;-62
2022/12/16 02:51:06;;;;;;;3.60;2.70;;;14.00;60.80;;;;;;5062242;28;20047;-63
2022/12/16 02:53:35;;;;;;;3.50;3.20;;;14.00;60.70;;;;;;5062159;28;20012;-63
2022/12/16 02:56:28;;;;;;;2.90;2.55;;;14.00;60.70;;;;;;5062107;28;20216;-63
2022/12/16 02:59:16;;;;;;;3.55;2.70;;;14.00;60.90;;;;;;5062114;28;20021;-63
2022/12/16 03:02:14;;;;;;;3.47;2.80;;;13.80;61.20;;;;;;5062097;28;20020;-63
2022/12/16 03:04:49;;;;;;;3.05;2.55;;;13.80;61.30;;;;;;5049821;28;20040;-63
2022/12/16 03:07:20;;;;;;;3.75;3.00;;;13.80;61.40;;;;;;5062026;28;20025;-62
2022/12/16 03:09:47;;;;;;;4.00;3.22;;;13.80;61.50;;;;;;5062018;28;20204;-63
2022/12/16 03:12:17;;;;;;;4.05;2.67;;;13.80;61.40;;;;;;5061965;28;20029;-63
2022/12/16 03:14:47;;;;;;;3.30;2.65;;;13.80;61.30;;;;;;5060815;28;20205;-63
2022/12/16 03:17:15;;;;;;;3.50;2.90;;;13.90;61.20;;;;;;5061700;28;20288;-63
2022/12/16 03:19:45;;;;;;;3.10;2.60;;;13.80;61.20;;;;;;5061854;28;20063;-63
2022/12/16 03:22:20;;;;;;;3.17;2.75;;;13.90;61.20;;;;;;5061748;28;20041;-63
2022/12/16 03:24:46;;;;;;;3.33;2.78;;;13.90;60.90;;;;;;5061739;28;20068;-63
2022/12/16 03:27:25;;;;;;;3.88;2.78;;;14.00;60.80;;;;;;5061704;28;20020;-63
2022/12/16 03:29:56;;;;;;;3.90;2.65;;;13.90;60.80;;;;;;5061815;28;20223;-63
2022/12/16 03:32:40;;;;;;;3.38;2.80;;;14.00;60.90;;;;;;5061679;28;20017;-63
2022/12/16 03:35:25;;;;;;;3.40;3.03;;;14.00;60.90;;;;;;5061637;28;20088;-64
2022/12/16 03:37:56;;;;;;;2.85;2.58;;;13.90;60.80;;;;;;5061621;28;20025;-63
2022/12/16 03:40:24;;;;;;;3.67;3.10;;;13.90;60.70;;;;;;5061624;28;20201;-63
2022/12/16 03:42:51;;;;;;;;;;;13.90;60.70;;;;;;5062046;28;20033;-63
2022/12/16 03:45:22;;;;;;;3.40;2.92;;;13.90;60.70;;;;;;5061676;28;19901;-62
2022/12/16 03:47:52;;;;;;;3.03;2.70;;;13.90;60.70;;;;;;5061614;28;20210;-62
2022/12/16 03:50:24;;;;;;;2.95;2.42;;;13.90;60.70;;;;;;5064567;28;20088;-62
2022/12/16 03:52:50;;;;;;;3.70;2.90;;;14.00;60.70;;;;;;5065651;28;20025;-63
2022/12/16 03:55:15;;;;;;;4.22;3.10;;;14.00;60.70;;;;;;5065568;28;20040;-63
2022/12/16 03:57:41;;;;;;;3.17;2.28;;;14.00;61.40;;;;;;5064218;28;20251;-63
2022/12/16 04:00:09;;;;;;;3.10;2.70;;;14.00;60.60;;;;;;5065454;28;20040;-63
2022/12/16 04:02:35;;;;;;;2.83;2.50;;;14.00;60.60;;;;;;5065395;28;20201;-63
2022/12/16 04:05:00;;;;;;;3.47;2.72;;;14.00;61.50;;;;;;5065349;28;20024;-63
2022/12/16 04:07:26;;;;;;;3.33;2.63;;;14.00;61.10;;;;;;5065331;28;20036;-64
2022/12/16 04:09:52;;;;;;;3.10;2.65;;;13.90;61.20;;;;;;5065236;28;20024;-63
2022/12/16 04:27:23;;;;;;;3.15;2.50;;;13.80;61.40;;;;;;5064912;28;20019;-63
2022/12/16 04:29:19;;;;;;;3.50;2.78;;;13.90;61.20;;;;;;5064770;28;20259;-63
2022/12/16 04:31:45;;;;;;;2.63;2.38;;;13.90;61.00;;;;;;5064881;28;20025;-63
2022/12/16 04:34:28;;;;;;;3.75;2.65;;;13.90;61.10;;;;;;5064850;28;20021;-63
